sensor_id;sensor_type;location;lat;lon;timestamp;pressure;altitude;pressure_sealevel;temperature;humidity
62705;BME280;48767;50.754;8.772;2022-08-11T00:01:11;99919.66;;;19.14;46.04
62705;BME280;48767;50.754;8.772;2022-08-11T00:03:43;99916.16;;;19.20;45.78
62705;BME280;48767;50.754;8.772;2022-08-11T00:06:11;99912.22;;;19.02;46.71
62705;BME280;48767;50.754;8.772;2022-08-11T00:08:39;99916.34;;;18.91;47.25
62705;BME280;48767;50.754;8.772;2022-08-11T00:11:08;99906.84;;;18.66;48.17
62705;BME280;48767;50.754;8.772;2022-08-11T00:13:39;99915.94;;;18.52;48.00
62705;BME280;48767;50.754;8.772;2022-08-11T00:16:13;99910.19;;;18.62;47.59
62705;BME280;48767;50.754;8.772;2022-08-11T00:18:42;99912.38;;;18.73;47.26
62705;BME280;48767;50.754;8.772;2022-08-11T00:21:10;99911.91;;;18.69;47.29
62705;BME280;48767;50.754;8.772;2022-08-11T00:23:44;99914.78;;;18.61;47.38
62705;BME280;48767;50.754;8.772;2022-08-11T00:26:12;99922.16;;;18.46;49.25
62705;BME280;48767;50.754;8.772;2022-08-11T00:28:40;99922.88;;;18.19;49.72
62705;BME280;48767;50.754;8.772;2022-08-11T00:31:09;99920.91;;;18.13;49.73
62705;BME280;48767;50.754;8.772;2022-08-11T00:33:40;99930.47;;;17.74;50.30
62705;BME280;48767;50.754;8.772;2022-08-11T00:36:08;99927.16;;;17.27;52.22
62705;BME280;48767;50.754;8.772;2022-08-11T00:38:38;99931.59;;;16.91;53.13
62705;BME280;48767;50.754;8.772;2022-08-11T00:41:17;99939.84;;;16.60;53.94
62705;BME280;48767;50.754;8.772;2022-08-11T00:44:06;99930.97;;;16.36;54.04
62705;BME280;48767;50.754;8.772;2022-08-11T00:46:44;99938.19;;;16.21;55.59
62705;BME280;48767;50.754;8.772;2022-08-11T00:49:24;99934.50;;;16.36;55.65
62705;BME280;48767;50.754;8.772;2022-08-11T00:52:07;99931.19;;;16.26;56.09
62705;BME280;48767;50.754;8.772;2022-08-11T00:54:57;99935.03;;;16.09;56.11
62705;BME280;48767;50.754;8.772;2022-08-11T01:00:33;99928.72;;;15.78;57.40
62705;BME280;48767;50.754;8.772;2022-08-11T01:03:17;99935.59;;;15.97;57.55
62705;BME280;48767;50.754;8.772;2022-08-11T01:06:11;99939.41;;;16.18;56.89
62705;BME280;48767;50.754;8.772;2022-08-11T01:09:14;99934.75;;;15.96;57.45
62705;BME280;48767;50.754;8.772;2022-08-11T01:12:00;99937.28;;;15.59;57.99
62705;BME280;48767;50.754;8.772;2022-08-11T01:15:13;99929.81;;;15.53;58.80
62705;BME280;48767;50.754;8.772;2022-08-11T01:21:07;99946.31;;;15.20;59.37
62705;BME280;48767;50.754;8.772;2022-08-11T01:30:09;99939.22;;;14.95;59.65
62705;BME280;48767;50.754;8.772;2022-08-11T01:33:04;99939.72;;;15.06;60.01
62705;BME280;48767;50.754;8.772;2022-08-11T01:38:59;99948.22;;;14.79;61.61
62705;BME280;48767;50.754;8.772;2022-08-11T01:42:18;99938.38;;;14.70;61.63
62705;BME280;48767;50.754;8.772;2022-08-11T01:45:20;99936.69;;;14.77;61.12
62705;BME280;48767;50.754;8.772;2022-08-11T01:47:58;99938.69;;;14.75;61.47
62705;BME280;48767;50.754;8.772;2022-08-11T01:50:39;99950.25;;;14.61;61.83
62705;BME280;48767;50.754;8.772;2022-08-11T01:53:22;99947.88;;;14.74;61.80
62705;BME280;48767;50.754;8.772;2022-08-11T01:56:05;99947.53;;;14.69;60.78
62705;BME280;48767;50.754;8.772;2022-08-11T01:58:42;99952.97;;;14.77;62.12
62705;BME280;48767;50.754;8.772;2022-08-11T02:01:15;99956.97;;;14.49;62.36
62705;BME280;48767;50.754;8.772;2022-08-11T02:03:53;99956.94;;;14.33;62.84
62705;BME280;48767;50.754;8.772;2022-08-11T02:06:29;99965.25;;;14.24;64.30
62705;BME280;48767;50.754;8.772;2022-08-11T02:09:25;99965.31;;;14.06;64.07
62705;BME280;48767;50.754;8.772;2022-08-11T02:12:00;99963.97;;;14.10;64.13
62705;BME280;48767;50.754;8.772;2022-08-11T02:14:30;99965.06;;;14.25;63.54
62705;BME280;48767;50.754;8.772;2022-08-11T02:17:10;99963.72;;;14.21;63.46
62705;BME280;48767;50.754;8.772;2022-08-11T02:19:50;99964.72;;;14.28;63.10
62705;BME280;48767;50.754;8.772;2022-08-11T02:22:41;99965.13;;;14.41;63.06
62705;BME280;48767;50.754;8.772;2022-08-11T02:25:36;99963.78;;;14.53;63.73
62705;BME280;48767;50.754;8.772;2022-08-11T02:28:09;99959.31;;;14.28;63.21
62705;BME280;48767;50.754;8.772;2022-08-11T02:30:45;99965.72;;;14.19;64.53
62705;BME280;48767;50.754;8.772;2022-08-11T02:33:36;99971.03;;;13.95;65.35
62705;BME280;48767;50.754;8.772;2022-08-11T02:36:07;99965.56;;;13.87;65.28
62705;BME280;48767;50.754;8.772;2022-08-11T02:38:42;99965.72;;;13.86;66.69
62705;BME280;48767;50.754;8.772;2022-08-11T02:41:22;99955.75;;;13.86;65.53
62705;BME280;48767;50.754;8.772;2022-08-11T02:44:22;99959.03;;;13.64;65.62
62705;BME280;48767;50.754;8.772;2022-08-11T02:46:57;99957.66;;;13.60;65.27
62705;BME280;48767;50.754;8.772;2022-08-11T02:49:38;99965.25;;;13.57;66.49
62705;BME280;48767;50.754;8.772;2022-08-11T02:52:24;99969.94;;;13.47;68.06
62705;BME280;48767;50.754;8.772;2022-08-11T02:55:07;99967.06;;;13.48;66.88
62705;BME280;48767;50.754;8.772;2022-08-11T02:57:42;99965.63;;;13.36;67.29
62705;BME280;48767;50.754;8.772;2022-08-11T03:00:12;99973.81;;;13.19;68.34
62705;BME280;48767;50.754;8.772;2022-08-11T03:02:48;99970.50;;;13.07;68.90
62705;BME280;48767;50.754;8.772;2022-08-11T03:05:29;99968.91;;;12.97;69.45
62705;BME280;48767;50.754;8.772;2022-08-11T03:08:24;99972.63;;;12.96;69.88
62705;BME280;48767;50.754;8.772;2022-08-11T03:11:00;99974.31;;;12.97;70.36
62705;BME280;48767;50.754;8.772;2022-08-11T03:13:59;99975.78;;;12.91;69.93
62705;BME280;48767;50.754;8.772;2022-08-11T03:16:52;99976.84;;;12.98;69.99
62705;BME280;48767;50.754;8.772;2022-08-11T03:19:25;99973.84;;;12.84;69.09
62705;BME280;48767;50.754;8.772;2022-08-11T03:22:02;99976.94;;;13.06;68.94
62705;BME280;48767;50.754;8.772;2022-08-11T03:24:38;99965.75;;;13.01;69.58
62705;BME280;48767;50.754;8.772;2022-08-11T03:27:18;99965.88;;;12.82;69.96
62705;BME280;48767;50.754;8.772;2022-08-11T03:30:02;99970.81;;;12.69;70.62
62705;BME280;48767;50.754;8.772;2022-08-11T03:32:35;99967.75;;;12.64;71.25
62705;BME280;48767;50.754;8.772;2022-08-11T03:35:04;99958.41;;;12.59;71.75
62705;BME280;48767;50.754;8.772;2022-08-11T03:37:38;99968.72;;;12.81;72.76
62705;BME280;48767;50.754;8.772;2022-08-11T03:43:46;99957.25;;;12.61;71.60
62705;BME280;48767;50.754;8.772;2022-08-11T03:46:26;99974.63;;;12.59;71.53
62705;BME280;48767;50.754;8.772;2022-08-11T03:49:06;99971.28;;;12.47;72.42
62705;BME280;48767;50.754;8.772;2022-08-11T03:51:49;99969.84;;;12.35;72.15
62705;BME280;48767;50.754;8.772;2022-08-11T03:54:26;99969.97;;;12.34;72.57
62705;BME280;48767;50.754;8.772;2022-08-11T04:00:18;99973.84;;;12.49;72.28
62705;BME280;48767;50.754;8.772;2022-08-11T04:03:05;99970.84;;;12.52;72.42
62705;BME280;48767;50.754;8.772;2022-08-11T04:12:38;99973.91;;;12.22;73.18
62705;BME280;48767;50.754;8.772;2022-08-11T04:18:45;99984.25;;;12.26;73.36
62705;BME280;48767;50.754;8.772;2022-08-11T04:27:41;99989.34;;;12.29;73.95
62705;BME280;48767;50.754;8.772;2022-08-11T04:30:14;99985.94;;;12.27;74.34
62705;BME280;48767;50.754;8.772;2022-08-11T04:33:01;99984.84;;;12.20;73.90
62705;BME280;48767;50.754;8.772;2022-08-11T04:35:38;99987.84;;;12.17;74.83
62705;BME280;48767;50.754;8.772;2022-08-11T04:41:28;100000.94;;;12.39;72.76
62705;BME280;48767;50.754;8.772;2022-08-11T04:44:31;99998.41;;;12.55;72.30
62705;BME280;48767;50.754;8.772;2022-08-11T04:47:15;99988.59;;;12.54;73.73
62705;BME280;48767;50.754;8.772;2022-08-11T04:50:36;99993.81;;;12.38;74.26
62705;BME280;48767;50.754;8.772;2022-08-11T04:53:34;99997.78;;;12.61;72.58
62705;BME280;48767;50.754;8.772;2022-08-11T04:56:23;99995.78;;;12.63;74.28
62705;BME280;48767;50.754;8.772;2022-08-11T04:59:25;99994.47;;;12.67;72.26
62705;BME280;48767;50.754;8.772;2022-08-11T05:02:42;99989.53;;;12.80;72.83
62705;BME280;48767;50.754;8.772;2022-08-11T05:05:22;99993.44;;;12.68;72.87
62705;BME280;48767;50.754;8.772;2022-08-11T05:10:57;99998.06;;;12.93;72.69
62705;BME280;48767;50.754;8.772;2022-08-11T05:13:28;99989.06;;;13.02;72.99
62705;BME280;48767;50.754;8.772;2022-08-11T05:16:17;99990.47;;;13.06;72.44
62705;BME280;48767;50.754;8.772;2022-08-11T05:19:03;99994.84;;;13.07;72.71
62705;BME280;48767;50.754;8.772;2022-08-11T05:21:53;99990.25;;;13.25;72.45
62705;BME280;48767;50.754;8.772;2022-08-11T05:24:42;99997.78;;;13.39;71.87
62705;BME280;48767;50.754;8.772;2022-08-11T05:27:34;99994.88;;;13.58;71.50
62705;BME280;48767;50.754;8.772;2022-08-11T05:30:19;99994.97;;;13.74;70.93
62705;BME280;48767;50.754;8.772;2022-08-11T05:33:11;99994.69;;;13.93;69.83
62705;BME280;48767;50.754;8.772;2022-08-11T05:36:02;100002.38;;;14.06;69.00
62705;BME280;48767;50.754;8.772;2022-08-11T05:38:33;99995.56;;;14.27;68.43
62705;BME280;48767;50.754;8.772;2022-08-11T05:41:19;100001.69;;;14.37;68.48
62705;BME280;48767;50.754;8.772;2022-08-11T05:44:06;100000.91;;;14.69;68.31
62705;BME280;48767;50.754;8.772;2022-08-11T05:46:50;100002.13;;;14.98;66.95
62705;BME280;48767;50.754;8.772;2022-08-11T05:49:35;100005.50;;;15.24;66.55
62705;BME280;48767;50.754;8.772;2022-08-11T05:52:23;99999.38;;;15.62;65.55
62705;BME280;48767;50.754;8.772;2022-08-11T05:55:09;100005.78;;;15.85;64.91
62705;BME280;48767;50.754;8.772;2022-08-11T05:57:54;100011.47;;;16.06;63.63
62705;BME280;48767;50.754;8.772;2022-08-11T06:00:23;100004.91;;;15.93;63.93
62705;BME280;48767;50.754;8.772;2022-08-11T06:02:52;100008.38;;;16.09;64.57
62705;BME280;48767;50.754;8.772;2022-08-11T06:05:20;100000.41;;;16.54;62.33
62705;BME280;48767;50.754;8.772;2022-08-11T06:07:47;99999.31;;;16.63;61.66
62705;BME280;48767;50.754;8.772;2022-08-11T06:10:24;99991.31;;;17.29;60.18
62705;BME280;48767;50.754;8.772;2022-08-11T06:12:52;99989.72;;;17.57;59.79
62705;BME280;48767;50.754;8.772;2022-08-11T06:15:20;99988.72;;;17.87;58.89
62705;BME280;48767;50.754;8.772;2022-08-11T06:17:48;99995.53;;;18.27;56.96
62705;BME280;48767;50.754;8.772;2022-08-11T06:20:16;99992.94;;;18.69;55.78
62705;BME280;48767;50.754;8.772;2022-08-11T06:22:47;99995.25;;;18.72;54.77
62705;BME280;48767;50.754;8.772;2022-08-11T06:25:20;99988.53;;;18.68;54.92
62705;BME280;48767;50.754;8.772;2022-08-11T06:27:53;99983.97;;;19.38;53.00
62705;BME280;48767;50.754;8.772;2022-08-11T06:30:32;99982.06;;;19.93;51.59
62705;BME280;48767;50.754;8.772;2022-08-11T06:33:01;99975.66;;;20.07;51.03
62705;BME280;48767;50.754;8.772;2022-08-11T06:35:36;99984.53;;;20.16;50.00
62705;BME280;48767;50.754;8.772;2022-08-11T06:38:07;99977.06;;;20.37;50.26
62705;BME280;48767;50.754;8.772;2022-08-11T06:40:39;99978.56;;;21.00;48.32
62705;BME280;48767;50.754;8.772;2022-08-11T06:43:14;99976.03;;;21.37;47.53
62705;BME280;48767;50.754;8.772;2022-08-11T06:45:50;99975.19;;;21.82;46.53
62705;BME280;48767;50.754;8.772;2022-08-11T06:48:21;99967.97;;;22.14;45.92
62705;BME280;48767;50.754;8.772;2022-08-11T06:50:50;99960.28;;;22.29;45.36
62705;BME280;48767;50.754;8.772;2022-08-11T06:53:38;99963.59;;;22.50;44.56
62705;BME280;48767;50.754;8.772;2022-08-11T06:56:07;99957.59;;;22.66;44.17
62705;BME280;48767;50.754;8.772;2022-08-11T06:58:51;99949.41;;;22.91;43.64
62705;BME280;48767;50.754;8.772;2022-08-11T07:01:42;99954.44;;;23.00;44.02
62705;BME280;48767;50.754;8.772;2022-08-11T07:04:19;99952.13;;;23.28;43.07
62705;BME280;48767;50.754;8.772;2022-08-11T07:06:56;99944.63;;;23.17;41.96
62705;BME280;48767;50.754;8.772;2022-08-11T07:10:00;99948.94;;;23.00;43.44
62705;BME280;48767;50.754;8.772;2022-08-11T07:12:48;99937.88;;;23.63;42.58
62705;BME280;48767;50.754;8.772;2022-08-11T07:15:34;99939.78;;;24.05;42.17
62705;BME280;48767;50.754;8.772;2022-08-11T07:18:15;99934.41;;;24.46;41.41
62705;BME280;48767;50.754;8.772;2022-08-11T07:21:11;99937.16;;;24.27;41.35
62705;BME280;48767;50.754;8.772;2022-08-11T07:23:57;99931.84;;;24.80;39.46
62705;BME280;48767;50.754;8.772;2022-08-11T07:26:49;99932.25;;;24.48;39.12
62705;BME280;48767;50.754;8.772;2022-08-11T07:29:35;99930.97;;;24.80;36.79
62705;BME280;48767;50.754;8.772;2022-08-11T07:32:11;99923.41;;;25.05;36.46
62705;BME280;48767;50.754;8.772;2022-08-11T07:34:44;99934.75;;;23.77;37.73
62705;BME280;48767;50.754;8.772;2022-08-11T07:37:15;99927.91;;;23.86;37.79
62705;BME280;48767;50.754;8.772;2022-08-11T07:39:45;99932.81;;;23.59;38.13
62705;BME280;48767;50.754;8.772;2022-08-11T07:42:14;99937.59;;;23.95;37.72
62705;BME280;48767;50.754;8.772;2022-08-11T07:44:41;99937.03;;;24.05;38.13
62705;BME280;48767;50.754;8.772;2022-08-11T07:47:27;99933.53;;;24.34;37.09
62705;BME280;48767;50.754;8.772;2022-08-11T07:50:12;99921.13;;;25.02;36.34
62705;BME280;48767;50.754;8.772;2022-08-11T07:53:00;99924.81;;;25.25;35.59
62705;BME280;48767;50.754;8.772;2022-08-11T07:55:28;99925.69;;;24.67;36.73
62705;BME280;48767;50.754;8.772;2022-08-11T07:57:57;99920.25;;;25.77;34.90
62705;BME280;48767;50.754;8.772;2022-08-11T08:00:43;99911.81;;;26.29;34.21
62705;BME280;48767;50.754;8.772;2022-08-11T08:03:29;99916.66;;;25.01;35.80
62705;BME280;48767;50.754;8.772;2022-08-11T08:06:13;99923.88;;;25.89;35.28
62705;BME280;48767;50.754;8.772;2022-08-11T08:09:00;99920.56;;;26.26;34.53
62705;BME280;48767;50.754;8.772;2022-08-11T08:11:45;99927.72;;;26.11;34.97
62705;BME280;48767;50.754;8.772;2022-08-11T08:14:30;99920.13;;;26.18;34.29
62705;BME280;48767;50.754;8.772;2022-08-11T08:17:15;99915.03;;;26.38;34.68
62705;BME280;48767;50.754;8.772;2022-08-11T08:19:59;99914.25;;;27.10;33.55
62705;BME280;48767;50.754;8.772;2022-08-11T08:22:26;99915.63;;;26.96;33.32
62705;BME280;48767;50.754;8.772;2022-08-11T08:24:55;99913.25;;;27.49;32.71
62705;BME280;48767;50.754;8.772;2022-08-11T08:27:22;99920.78;;;27.04;33.70
62705;BME280;48767;50.754;8.772;2022-08-11T08:29:50;99914.53;;;26.97;33.73
62705;BME280;48767;50.754;8.772;2022-08-11T08:32:37;99918.78;;;27.16;33.49
62705;BME280;48767;50.754;8.772;2022-08-11T08:35:05;99904.22;;;27.70;32.40
62705;BME280;48767;50.754;8.772;2022-08-11T08:37:32;99903.38;;;27.86;32.71
62705;BME280;48767;50.754;8.772;2022-08-11T08:40:00;99905.88;;;27.71;32.19
62705;BME280;48767;50.754;8.772;2022-08-11T08:42:29;99920.69;;;26.71;33.84
62705;BME280;48767;50.754;8.772;2022-08-11T08:45:01;99906.41;;;28.06;32.12
62705;BME280;48767;50.754;8.772;2022-08-11T08:47:28;99895.53;;;28.21;31.28
62705;BME280;48767;50.754;8.772;2022-08-11T08:49:59;99894.84;;;28.30;31.06
62705;BME280;48767;50.754;8.772;2022-08-11T08:52:31;99908.09;;;27.36;33.01
62705;BME280;48767;50.754;8.772;2022-08-11T08:55:04;99902.53;;;27.19;32.39
62705;BME280;48767;50.754;8.772;2022-08-11T08:57:32;99900.75;;;28.17;31.51
62705;BME280;48767;50.754;8.772;2022-08-11T09:00:01;99900.84;;;27.51;32.16
62705;BME280;48767;50.754;8.772;2022-08-11T09:02:29;99903.91;;;27.50;32.14
62705;BME280;48767;50.754;8.772;2022-08-11T09:04:56;99898.69;;;27.70;32.48
62705;BME280;48767;50.754;8.772;2022-08-11T09:07:24;99894.50;;;27.51;33.55
62705;BME280;48767;50.754;8.772;2022-08-11T09:09:54;99889.56;;;28.29;31.70
62705;BME280;48767;50.754;8.772;2022-08-11T09:12:26;99880.47;;;29.08;30.41
62705;BME280;48767;50.754;8.772;2022-08-11T09:14:53;99898.69;;;26.76;33.27
62705;BME280;48767;50.754;8.772;2022-08-11T09:17:29;99885.25;;;27.62;32.57
62705;BME280;48767;50.754;8.772;2022-08-11T09:19:58;99882.28;;;28.23;31.35
62705;BME280;48767;50.754;8.772;2022-08-11T09:22:26;99882.69;;;29.06;30.68
62705;BME280;48767;50.754;8.772;2022-08-11T09:25:12;99879.28;;;29.57;29.58
62705;BME280;48767;50.754;8.772;2022-08-11T09:27:58;99873.53;;;29.37;30.03
62705;BME280;48767;50.754;8.772;2022-08-11T09:30:26;99871.19;;;30.02;28.71
62705;BME280;48767;50.754;8.772;2022-08-11T09:32:53;99872.44;;;28.37;30.97
62705;BME280;48767;50.754;8.772;2022-08-11T09:35:23;99874.53;;;29.57;29.05
62705;BME280;48767;50.754;8.772;2022-08-11T09:37:51;99863.97;;;30.01;28.49
62705;BME280;48767;50.754;8.772;2022-08-11T09:40:36;99855.03;;;30.55;28.48
62705;BME280;48767;50.754;8.772;2022-08-11T09:43:05;99865.56;;;29.82;28.30
62705;BME280;48767;50.754;8.772;2022-08-11T09:45:54;99862.88;;;30.07;28.14
62705;BME280;48767;50.754;8.772;2022-08-11T09:48:23;99857.69;;;31.07;26.46
62705;BME280;48767;50.754;8.772;2022-08-11T09:50:52;99857.63;;;29.59;27.20
62705;BME280;48767;50.754;8.772;2022-08-11T09:53:20;99854.84;;;28.96;28.30
62705;BME280;48767;50.754;8.772;2022-08-11T09:55:48;99848.56;;;29.78;27.67
62705;BME280;48767;50.754;8.772;2022-08-11T09:58:17;99856.00;;;28.25;28.42
62705;BME280;48767;50.754;8.772;2022-08-11T10:00:47;99853.38;;;29.15;27.44
62705;BME280;48767;50.754;8.772;2022-08-11T10:03:15;99854.53;;;28.66;28.55
62705;BME280;48767;50.754;8.772;2022-08-11T10:05:45;99847.44;;;29.38;27.54
62705;BME280;48767;50.754;8.772;2022-08-11T10:08:31;99846.28;;;29.34;27.49
62705;BME280;48767;50.754;8.772;2022-08-11T10:10:59;99834.56;;;29.22;26.24
62705;BME280;48767;50.754;8.772;2022-08-11T10:13:30;99840.31;;;30.50;25.98
62705;BME280;48767;50.754;8.772;2022-08-11T10:16:17;99823.75;;;31.20;24.96
62705;BME280;48767;50.754;8.772;2022-08-11T10:18:46;99817.34;;;31.29;24.48
62705;BME280;48767;50.754;8.772;2022-08-11T10:21:23;99815.91;;;31.47;24.18
62705;BME280;48767;50.754;8.772;2022-08-11T10:23:53;99820.94;;;31.20;23.42
62705;BME280;48767;50.754;8.772;2022-08-11T10:26:38;99818.41;;;31.03;23.89
62705;BME280;48767;50.754;8.772;2022-08-11T10:29:22;99818.72;;;30.92;23.64
62705;BME280;48767;50.754;8.772;2022-08-11T10:32:07;99808.41;;;31.42;23.41
62705;BME280;48767;50.754;8.772;2022-08-11T10:34:53;99807.00;;;31.05;23.64
62705;BME280;48767;50.754;8.772;2022-08-11T10:37:22;99800.22;;;31.96;22.90
62705;BME280;48767;50.754;8.772;2022-08-11T10:39:49;99803.06;;;31.61;22.74
62705;BME280;48767;50.754;8.772;2022-08-11T10:42:16;99801.19;;;31.36;23.73
62705;BME280;48767;50.754;8.772;2022-08-11T10:45:05;99799.19;;;31.52;23.20
62705;BME280;48767;50.754;8.772;2022-08-11T10:47:55;99780.75;;;31.81;23.42
62705;BME280;48767;50.754;8.772;2022-08-11T10:50:21;99798.66;;;31.35;23.81
62705;BME280;48767;50.754;8.772;2022-08-11T10:53:06;99800.16;;;32.06;23.22
62705;BME280;48767;50.754;8.772;2022-08-11T10:55:50;99789.47;;;32.33;23.02
62705;BME280;48767;50.754;8.772;2022-08-11T10:58:36;99785.00;;;32.32;22.75
62705;BME280;48767;50.754;8.772;2022-08-11T11:01:16;99788.09;;;32.30;23.07
62705;BME280;48767;50.754;8.772;2022-08-11T11:03:45;99789.00;;;32.11;23.08
62705;BME280;48767;50.754;8.772;2022-08-11T11:06:22;99775.16;;;32.88;21.95
62705;BME280;48767;50.754;8.772;2022-08-11T11:08:54;99777.38;;;33.19;22.17
62705;BME280;48767;50.754;8.772;2022-08-11T11:11:23;99782.69;;;33.49;22.07
62705;BME280;48767;50.754;8.772;2022-08-11T11:14:13;99769.59;;;32.88;22.10
62705;BME280;48767;50.754;8.772;2022-08-11T11:17:00;99770.28;;;31.33;22.92
62705;BME280;48767;50.754;8.772;2022-08-11T11:19:45;99753.97;;;33.44;21.59
62705;BME280;48767;50.754;8.772;2022-08-11T11:22:14;99748.97;;;32.84;22.29
62705;BME280;48767;50.754;8.772;2022-08-11T11:25:03;99742.59;;;32.73;22.08
62705;BME280;48767;50.754;8.772;2022-08-11T11:27:39;99746.69;;;33.48;21.79
62705;BME280;48767;50.754;8.772;2022-08-11T11:30:12;99730.41;;;33.55;20.96
62705;BME280;48767;50.754;8.772;2022-08-11T11:32:47;99733.84;;;33.47;20.93
62705;BME280;48767;50.754;8.772;2022-08-11T11:35:39;99739.19;;;33.43;21.04
62705;BME280;48767;50.754;8.772;2022-08-11T11:38:08;99724.94;;;33.92;20.42
62705;BME280;48767;50.754;8.772;2022-08-11T11:40:37;99746.91;;;31.24;22.35
62705;BME280;48767;50.754;8.772;2022-08-11T11:43:05;99741.75;;;30.06;23.65
62705;BME280;48767;50.754;8.772;2022-08-11T11:45:32;99738.38;;;31.89;22.51
62705;BME280;48767;50.754;8.772;2022-08-11T11:48:00;99727.41;;;32.89;21.58
62705;BME280;48767;50.754;8.772;2022-08-11T11:50:29;99727.19;;;33.90;20.03
62705;BME280;48767;50.754;8.772;2022-08-11T11:52:57;99724.66;;;33.93;20.40
62705;BME280;48767;50.754;8.772;2022-08-11T11:55:26;99719.72;;;33.62;20.46
62705;BME280;48767;50.754;8.772;2022-08-11T11:57:53;99708.34;;;33.77;20.37
62705;BME280;48767;50.754;8.772;2022-08-11T12:00:39;99722.09;;;33.97;20.16
62705;BME280;48767;50.754;8.772;2022-08-11T12:03:25;99696.03;;;34.20;19.99
62705;BME280;48767;50.754;8.772;2022-08-11T12:05:52;99713.47;;;33.18;20.66
62705;BME280;48767;50.754;8.772;2022-08-11T12:08:20;99708.19;;;33.45;20.44
62705;BME280;48767;50.754;8.772;2022-08-11T12:10:51;99717.97;;;30.90;22.23
62705;BME280;48767;50.754;8.772;2022-08-11T12:13:40;99704.66;;;32.72;20.96
62705;BME280;48767;50.754;8.772;2022-08-11T12:16:07;99713.97;;;31.51;21.61
62705;BME280;48767;50.754;8.772;2022-08-11T12:18:36;99705.84;;;31.64;22.18
62705;BME280;48767;50.754;8.772;2022-08-11T12:21:03;99703.94;;;33.24;20.94
62705;BME280;48767;50.754;8.772;2022-08-11T12:23:31;99690.69;;;33.58;20.64
62705;BME280;48767;50.754;8.772;2022-08-11T12:26:17;99686.75;;;33.59;20.89
62705;BME280;48767;50.754;8.772;2022-08-11T12:29:03;99685.91;;;34.24;20.25
62705;BME280;48767;50.754;8.772;2022-08-11T12:31:31;99685.44;;;33.28;20.49
62705;BME280;48767;50.754;8.772;2022-08-11T12:34:03;99704.06;;;30.50;23.02
62705;BME280;48767;50.754;8.772;2022-08-11T12:36:34;99687.31;;;31.35;22.76
62705;BME280;48767;50.754;8.772;2022-08-11T12:39:04;99673.31;;;33.14;20.74
62705;BME280;48767;50.754;8.772;2022-08-11T12:41:34;99674.47;;;33.60;20.17
62705;BME280;48767;50.754;8.772;2022-08-11T12:44:19;99665.69;;;33.90;19.97
62705;BME280;48767;50.754;8.772;2022-08-11T12:47:06;99659.97;;;34.18;20.29
62705;BME280;48767;50.754;8.772;2022-08-11T12:49:36;99661.88;;;34.73;19.93
62705;BME280;48767;50.754;8.772;2022-08-11T12:52:26;99670.59;;;33.09;20.70
62705;BME280;48767;50.754;8.772;2022-08-11T12:54:58;99641.88;;;33.74;20.25
62705;BME280;48767;50.754;8.772;2022-08-11T12:57:29;99652.13;;;34.39;20.05
62705;BME280;48767;50.754;8.772;2022-08-11T13:00:15;99641.97;;;35.20;19.36
62705;BME280;48767;50.754;8.772;2022-08-11T13:03:01;99645.63;;;34.06;19.73
62705;BME280;48767;50.754;8.772;2022-08-11T13:05:47;99627.53;;;34.68;19.51
62705;BME280;48767;50.754;8.772;2022-08-11T13:08:18;99629.50;;;34.86;19.74
62705;BME280;48767;50.754;8.772;2022-08-11T13:10:45;99634.16;;;35.36;18.98
62705;BME280;48767;50.754;8.772;2022-08-11T13:13:32;99625.56;;;34.87;18.65
62705;BME280;48767;50.754;8.772;2022-08-11T13:15:59;99618.81;;;35.96;18.36
62705;BME280;48767;50.754;8.772;2022-08-11T13:18:26;99626.81;;;34.94;19.21
62705;BME280;48767;50.754;8.772;2022-08-11T13:20:55;99632.03;;;35.55;18.45
62705;BME280;48767;50.754;8.772;2022-08-11T13:23:22;99617.88;;;36.00;18.63
62705;BME280;48767;50.754;8.772;2022-08-11T13:25:52;99609.28;;;35.83;18.96
62705;BME280;48767;50.754;8.772;2022-08-11T13:28:21;99612.75;;;36.38;18.38
62705;BME280;48767;50.754;8.772;2022-08-11T13:30:48;99619.00;;;33.72;20.57
62705;BME280;48767;50.754;8.772;2022-08-11T13:33:34;99610.25;;;35.25;19.05
62705;BME280;48767;50.754;8.772;2022-08-11T13:36:03;99611.69;;;36.12;18.22
62705;BME280;48767;50.754;8.772;2022-08-11T13:38:31;99613.53;;;34.86;18.81
62705;BME280;48767;50.754;8.772;2022-08-11T13:40:58;99600.28;;;35.32;18.98
62705;BME280;48767;50.754;8.772;2022-08-11T13:43:25;99605.31;;;35.71;18.25
62705;BME280;48767;50.754;8.772;2022-08-11T13:45:53;99597.19;;;36.32;17.93
62705;BME280;48767;50.754;8.772;2022-08-11T13:48:40;99607.53;;;35.06;18.42
62705;BME280;48767;50.754;8.772;2022-08-11T13:51:08;99607.69;;;35.91;17.59
62705;BME280;48767;50.754;8.772;2022-08-11T13:53:53;99606.94;;;35.50;17.90
62705;BME280;48767;50.754;8.772;2022-08-11T13:56:21;99605.69;;;33.64;19.30
62705;BME280;48767;50.754;8.772;2022-08-11T13:58:48;99590.97;;;35.10;18.36
62705;BME280;48767;50.754;8.772;2022-08-11T14:01:16;99594.47;;;35.69;18.00
62705;BME280;48767;50.754;8.772;2022-08-11T14:03:44;99587.66;;;35.48;18.05
62705;BME280;48767;50.754;8.772;2022-08-11T14:06:14;99588.19;;;34.14;19.38
62705;BME280;48767;50.754;8.772;2022-08-11T14:08:43;99583.34;;;35.78;17.90
62705;BME280;48767;50.754;8.772;2022-08-11T14:11:10;99583.81;;;35.93;17.79
62705;BME280;48767;50.754;8.772;2022-08-11T14:13:55;99576.50;;;35.70;17.71
62705;BME280;48767;50.754;8.772;2022-08-11T14:16:26;99575.38;;;35.58;17.98
62705;BME280;48767;50.754;8.772;2022-08-11T14:18:57;99571.88;;;35.39;17.53
62705;BME280;48767;50.754;8.772;2022-08-11T14:21:27;99590.66;;;32.61;20.32
62705;BME280;48767;50.754;8.772;2022-08-11T14:24:15;99578.50;;;34.89;18.60
62705;BME280;48767;50.754;8.772;2022-08-11T14:26:43;99578.59;;;35.51;17.62
62705;BME280;48767;50.754;8.772;2022-08-11T14:29:11;99559.28;;;35.77;17.72
62705;BME280;48767;50.754;8.772;2022-08-11T14:31:43;99570.94;;;34.25;18.39
62705;BME280;48767;50.754;8.772;2022-08-11T14:34:11;99571.84;;;35.52;17.54
62705;BME280;48767;50.754;8.772;2022-08-11T14:36:42;99582.28;;;31.55;20.53
62705;BME280;48767;50.754;8.772;2022-08-11T14:39:11;99567.53;;;32.32;20.10